Time;durP1;ratioP1;P1;durP2;ratioP2;P2;SDS_P1;SDS_P2;PMS_P1;PMS_P2;Temp;Humidity;BMP_temperature;BMP_pressure;BME280_temperature;BME280_humidity;BME280_pressure;Samples;Min_cycle;Max_cycle;Signal;HPM_P1;HPM_P2
2023/06/28 00:04:23;;;;;;;1.98;0.88;;;;;;;21.89;41.52;100290.81;10338666;28;20076;-65
2023/06/28 00:09:25;;;;;;;2.00;1.00;;;;;;;21.86;41.19;100293.09;10362383;28;20112;-66
2023/06/28 00:14:26;;;;;;;1.48;0.90;;;;;;;21.77;41.99;100289.69;10357543;28;20049;-65
2023/06/28 00:19:28;;;;;;;2.70;1.23;;;;;;;21.91;41.87;100295.22;10341250;28;20049;-65
2023/06/28 00:24:29;;;;;;;4.57;2.30;;;;;;;21.95;41.81;100299.19;10356604;28;20045;-66
2023/06/28 00:29:31;;;;;;;2.03;1.20;;;;;;;21.87;41.36;100301.03;10351964;28;20046;-66
2023/06/28 00:34:32;;;;;;;1.88;1.10;;;;;;;21.83;42.34;100299.75;10350075;28;20085;-66
2023/06/28 00:39:34;;;;;;;3.72;1.50;;;;;;;21.88;41.67;100308.09;10357906;28;20622;-67
2023/06/28 00:44:37;;;;;;;3.22;1.05;;;;;;;21.95;41.44;100308.19;10352477;28;20050;-66
2023/06/28 00:49:39;;;;;;;2.58;1.23;;;;;;;21.92;41.88;100310.41;10343862;28;20056;-66
2023/06/28 00:54:40;;;;;;;3.28;1.33;;;;;;;21.80;42.54;100320.94;10356115;28;20612;-65
2023/06/28 00:59:43;;;;;;;2.45;1.00;;;;;;;21.84;43.03;100320.41;10343708;28;20142;-65
2023/06/28 01:04:44;;;;;;;2.78;1.00;;;;;;;21.81;42.65;100320.78;10347461;28;20655;-66
2023/06/28 01:09:46;;;;;;;3.30;1.00;;;;;;;21.64;42.27;100319.38;10346041;28;20456;-66
2023/06/28 01:14:48;;;;;;;2.75;0.98;;;;;;;21.58;43.19;100331.81;10350615;28;20046;-65
2023/06/28 01:19:49;;;;;;;2.35;0.80;;;;;;;21.60;42.49;100318.09;10355524;28;20664;-66
2023/06/28 01:24:51;;;;;;;3.17;0.90;;;;;;;21.56;42.57;100322.19;10357071;28;20658;-66
2023/06/28 01:29:56;;;;;;;1.97;1.20;;;;;;;21.56;43.06;100328.47;10351733;28;20056;-66
2023/06/28 01:34:58;;;;;;;4.07;1.30;;;;;;;21.59;42.34;100321.81;10337580;28;20149;-66
2023/06/28 01:40:02;;;;;;;4.32;1.25;;;;;;;21.61;42.89;100331.44;10352186;28;20142;-65
2023/06/28 01:45:04;;;;;;;1.83;0.75;;;;;;;21.66;42.74;100328.13;10334610;28;20685;-65
2023/06/28 01:50:07;;;;;;;4.45;1.10;;;;;;;21.68;42.56;100320.66;10351117;28;20076;-67
2023/06/28 01:55:10;;;;;;;1.83;1.00;;;;;;;21.69;43.11;100325.88;10336706;28;20075;-65
2023/06/28 02:00:15;;;;;;;3.83;1.25;;;;;;;21.68;42.60;100320.66;10357549;28;20054;-65
2023/06/28 02:05:16;;;;;;;4.97;1.30;;;;;;;21.67;42.88;100321.69;10338467;28;20061;-64
2023/06/28 02:10:18;;;;;;;3.83;1.25;;;;;;;21.61;43.29;100317.06;10362278;28;20049;-65
2023/06/28 02:15:21;;;;;;;3.40;1.58;;;;;;;21.66;43.09;100323.56;10343769;28;20033;-66
2023/06/28 02:20:22;;;;;;;3.58;1.13;;;;;;;21.66;43.07;100322.72;10375250;28;20057;-67
2023/06/28 02:25:24;;;;;;;2.40;1.20;;;;;;;21.63;43.20;100328.53;10398175;28;20123;-67
2023/06/28 02:30:25;;;;;;;2.15;1.58;;;;;;;21.63;43.33;100329.38;10345375;28;20516;-64
2023/06/28 02:35:27;;;;;;;3.83;1.42;;;;;;;21.62;43.55;100324.13;10343427;28;20053;-65
2023/06/28 02:40:28;;;;;;;2.72;1.70;;;;;;;21.57;43.38;100321.19;10361854;28;20052;-66
2023/06/28 02:45:29;;;;;;;3.25;1.60;;;;;;;21.56;43.97;100327.63;10367753;28;20126;-65
2023/06/28 02:50:31;;;;;;;2.92;1.30;;;;;;;21.52;43.98;100328.00;10356113;28;20423;-63
2023/06/28 02:55:32;;;;;;;4.15;1.73;;;;;;;21.53;44.28;100331.56;10343031;28;20456;-65
2023/06/28 03:00:34;;;;;;;2.92;1.05;;;;;;;21.54;44.11;100327.81;10358698;28;20152;-66
2023/06/28 03:05:35;;;;;;;2.22;1.05;;;;;;;21.52;44.38;100336.13;10351099;28;20331;-65
2023/06/28 03:10:37;;;;;;;2.65;1.30;;;;;;;21.47;44.44;100325.03;10353638;28;20138;-65
2023/06/28 03:15:38;;;;;;;4.13;1.50;;;;;;;21.48;44.37;100337.53;10362420;28;20402;-66
2023/06/28 03:20:40;;;;;;;3.63;1.10;;;;;;;21.43;44.78;100342.69;10351151;28;20050;-66
2023/06/28 03:25:42;;;;;;;2.97;1.20;;;;;;;21.39;44.84;100344.09;10355595;28;20058;-66
2023/06/28 03:30:44;;;;;;;2.50;1.20;;;;;;;21.38;44.95;100342.44;10355197;28;20101;-66
2023/06/28 03:35:46;;;;;;;3.08;1.05;;;;;;;21.34;45.09;100333.00;10339314;28;20057;-65
2023/06/28 03:40:47;;;;;;;4.03;1.42;;;;;;;21.35;45.29;100335.53;10355816;28;20057;-65
2023/06/28 03:45:48;;;;;;;2.75;1.85;;;;;;;21.34;45.16;100341.13;10349788;28;20488;-66
2023/06/28 03:50:50;;;;;;;2.92;1.40;;;;;;;21.14;45.69;100333.63;10340123;28;20067;-66
2023/06/28 03:55:51;;;;;;;2.85;1.45;;;;;;;21.09;46.19;100333.38;10352598;28;20054;-66
2023/06/28 04:00:53;;;;;;;3.40;1.35;;;;;;;21.00;45.92;100345.31;10357722;28;20723;-64
2023/06/28 04:05:54;;;;;;;4.82;1.52;;;;;;;21.13;45.80;100340.06;10353778;28;20057;-65
2023/06/28 04:10:56;;;;;;;4.57;1.25;;;;;;;21.16;45.92;100334.25;10341890;28;20110;-66
2023/06/28 04:15:58;;;;;;;3.83;1.55;;;;;;;21.22;46.07;100348.09;10338250;28;20737;-66
2023/06/28 04:20:59;;;;;;;2.53;0.93;;;;;;;21.19;46.04;100350.13;10358260;28;20048;-65
2023/06/28 04:26:02;;;;;;;3.92;1.27;;;;;;;21.23;46.42;100355.16;10355278;28;20046;-65
2023/06/28 04:31:04;;;;;;;2.67;1.50;;;;;;;21.22;46.40;100362.44;10354358;28;20057;-66
2023/06/28 04:36:05;;;;;;;3.25;1.00;;;;;;;21.17;46.28;100362.19;10349059;28;20052;-66
2023/06/28 04:41:07;;;;;;;3.25;1.13;;;;;;;21.16;46.40;100363.22;10340463;28;20068;-66
2023/06/28 04:46:11;;;;;;;5.00;1.52;;;;;;;21.16;46.36;100360.50;10355053;28;20060;-67
2023/06/28 04:51:13;;;;;;;4.05;1.27;;;;;;;21.15;46.21;100359.69;10353590;28;20049;-66
2023/06/28 04:56:15;;;;;;;4.43;1.10;;;;;;;21.15;45.97;100356.09;10355237;28;20511;-65
2023/06/28 05:01:16;;;;;;;2.63;0.93;;;;;;;21.14;46.47;100349.88;10350971;28;20045;-66
2023/06/28 05:06:19;;;;;;;3.65;1.23;;;;;;;21.09;46.28;100346.03;10345475;28;20076;-66
2023/06/28 05:11:21;;;;;;;3.55;1.45;;;;;;;21.10;46.08;100359.38;10339135;28;20054;-65
2023/06/28 05:16:22;;;;;;;3.47;1.42;;;;;;;20.90;47.05;100361.03;10338570;28;20049;-66
2023/06/28 05:21:24;;;;;;;3.65;1.00;;;;;;;20.95;46.65;100364.00;10390253;28;20128;-67
2023/06/28 05:26:25;;;;;;;2.80;1.23;;;;;;;20.90;46.45;100361.88;10344568;28;20362;-67
2023/06/28 05:31:27;;;;;;;2.05;1.08;;;;;;;20.66;47.61;100355.72;10346210;28;20061;-66
2023/06/28 05:36:29;;;;;;;3.05;1.10;;;;;;;20.65;47.71;100361.28;10359379;28;20176;-66
2023/06/28 05:41:30;;;;;;;2.97;1.30;;;;;;;20.58;47.64;100363.03;10345285;28;20132;-67
2023/06/28 05:46:32;;;;;;;5.38;1.38;;;;;;;20.60;48.15;100358.31;10353487;28;20060;-66
2023/06/28 05:51:34;;;;;;;3.67;1.33;;;;;;;20.64;47.97;100365.00;10357179;28;20071;-67
2023/06/28 05:56:36;;;;;;;2.60;1.27;;;;;;;20.79;48.24;100376.72;10350727;28;20053;-65
2023/06/28 06:01:37;;;;;;;3.13;1.30;;;;;;;20.76;49.71;100377.09;10338665;28;21127;-65
2023/06/28 06:06:39;;;;;;;5.28;1.73;;;;;;;20.79;48.84;100370.44;10337074;28;20060;-65
2023/06/28 06:11:40;;;;;;;3.60;1.23;;;;;;;20.82;48.61;100376.34;10347276;28;20486;-65
2023/06/28 06:16:41;;;;;;;4.07;1.05;;;;;;;20.70;48.88;100367.00;10350279;28;20161;-65
2023/06/28 06:21:43;;;;;;;15.48;5.97;;;;;;;20.54;49.96;100361.75;10354549;28;20243;-66
2023/06/28 06:26:44;;;;;;;4.00;1.58;;;;;;;20.70;49.11;100372.41;10348480;28;20053;-66
2023/06/28 06:31:46;;;;;;;3.72;1.73;;;;;;;20.77;48.60;100378.75;10339220;28;20820;-66
2023/06/28 06:36:47;;;;;;;4.55;1.08;;;;;;;20.73;49.18;100377.47;10349180;28;20105;-66
2023/06/28 06:41:49;;;;;;;2.67;1.50;;;;;;;20.93;48.28;100382.31;10349000;28;20053;-66
2023/06/28 06:46:51;;;;;;;1.92;1.15;;;;;;;20.83;49.49;100382.56;10349985;28;20056;-67
2023/06/28 06:51:53;;;;;;;4.43;1.63;;;;;;;20.81;48.73;100363.00;10349979;28;20056;-66
2023/06/28 06:56:58;;;;;;;2.63;1.70;;;;;;;21.01;48.64;100393.84;10354029;28;20148;-65
2023/06/28 07:01:59;;;;;;;2.58;1.48;;;;;;;21.15;48.86;100400.28;10349002;28;20088;-66
2023/06/28 07:07:01;;;;;;;3.67;1.20;;;;;;;21.18;48.48;100408.00;10348397;28;20054;-66
2023/06/28 07:12:02;;;;;;;6.85;1.52;;;;;;;21.24;48.42;100410.97;10348491;28;20496;-65
2023/06/28 07:17:04;;;;;;;3.28;1.25;;;;;;;21.24;48.11;100416.38;10338645;28;20052;-64
2023/06/28 07:22:05;;;;;;;3.83;1.40;;;;;;;21.29;48.03;100403.13;10344109;28;20060;-65
2023/06/28 07:27:07;;;;;;;3.63;1.40;;;;;;;21.26;47.82;100398.94;10348373;28;20308;-65
2023/06/28 07:32:08;;;;;;;4.38;1.50;;;;;;;21.32;47.87;100398.19;10353919;28;20050;-65
2023/06/28 07:37:10;;;;;;;2.67;1.20;;;;;;;21.39;47.36;100400.94;10352372;28;20077;-65
2023/06/28 07:42:12;;;;;;;3.40;1.35;;;;;;;21.46;47.56;100409.16;10355261;28;20495;-66
2023/06/28 07:47:14;;;;;;;6.40;2.25;;;;;;;21.51;47.54;100396.75;10336521;28;20107;-66
2023/06/28 07:52:15;;;;;;;4.25;1.42;;;;;;;21.56;47.38;100393.47;10351066;28;20511;-68
2023/06/28 07:57:17;;;;;;;6.75;1.42;;;;;;;21.64;47.38;100390.63;10349929;28;20215;-65
2023/06/28 08:02:18;;;;;;;5.75;1.83;;;;;;;21.79;46.38;100398.69;10348615;28;20063;-67
2023/06/28 08:07:20;;;;;;;2.92;1.58;;;;;;;21.99;46.61;100388.06;10302035;23;20093;-67
2023/06/28 08:12:21;;;;;;;4.93;1.48;;;;;;;22.09;45.23;100386.88;10348862;28;20049;-66
2023/06/28 08:17:23;;;;;;;4.43;1.85;;;;;;;22.15;45.62;100395.03;10364503;28;20049;-66
2023/06/28 08:22:25;;;;;;;3.83;1.70;;;;;;;22.24;45.69;100391.16;10322515;28;20433;-66
2023/06/28 08:27:26;;;;;;;2.28;1.17;;;;;;;22.33;44.38;100389.16;10315069;28;20066;-71
2023/06/28 08:32:27;;;;;;;4.85;2.08;;;;;;;22.35;45.11;100397.09;10313771;28;20063;-65
2023/06/28 08:37:31;;;;;;;5.95;1.60;;;;;;;22.37;44.70;100389.63;10321813;28;20065;-66
2023/06/28 08:42:34;;;;;;;3.30;1.45;;;;;;;22.24;45.38;100385.72;10320215;28;20054;-66
2023/06/28 08:47:36;;;;;;;3.93;1.37;;;;;;;22.37;44.88;100384.22;10317567;28;20126;-67
2023/06/28 08:52:40;;;;;;;3.53;1.50;;;;;;;22.45;44.08;100381.31;10321187;28;20053;-69
2023/06/28 08:57:42;;;;;;;;;;;;;;;22.44;44.51;100379.63;10317409;28;20604;-67
2023/06/28 09:02:43;;;;;;;3.38;1.80;;;;;;;22.62;44.36;100381.84;10319719;28;19925;-68
2023/06/28 09:07:48;;;;;;;4.32;1.70;;;;;;;22.70;43.90;100383.53;10317702;28;20045;-68
2023/06/28 09:12:51;;;;;;;4.75;2.25;;;;;;;22.82;43.75;100365.69;10321647;28;20093;-67
2023/06/28 09:17:52;;;;;;;4.27;1.30;;;;;;;22.82;44.15;100360.25;10317584;28;20165;-67
2023/06/28 09:22:59;;;;;;;5.20;1.75;;;;;;;22.77;43.61;100373.56;10317180;28;20598;-66
2023/06/28 09:28:00;;;;;;;7.20;1.33;;;;;;;22.43;44.12;100377.97;10319703;28;20396;-68
2023/06/28 09:33:05;;;;;;;4.30;1.48;;;;;;;22.39;45.23;100374.00;10334860;28;20092;-67
2023/06/28 09:38:07;;;;;;;4.70;1.80;;;;;;;22.32;44.20;100386.66;10318045;28;20170;-67
2023/06/28 09:43:13;;;;;;;3.85;1.45;;;;;;;22.28;44.33;100393.47;10321587;28;20046;-69
2023/06/28 09:48:21;;;;;;;3.85;1.55;;;;;;;22.35;44.35;100386.25;10324473;28;20127;-66
2023/06/28 09:53:22;;;;;;;4.30;1.27;;;;;;;22.45;44.25;100392.19;10324746;28;20512;-68
2023/06/28 09:58:27;;;;;;;3.45;1.50;;;;;;;22.48;44.52;100391.78;10313007;28;20057;-68
2023/06/28 10:03:30;;;;;;;5.10;1.65;;;;;;;22.59;43.75;100395.81;10327710;28;20065;-69
2023/06/28 10:08:32;;;;;;;3.40;1.50;;;;;;;22.58;43.89;100391.44;10318446;28;20549;-68
2023/06/28 10:13:35;;;;;;;7.80;1.98;;;;;;;22.57;43.38;100387.88;10326581;28;20138;-68
2023/06/28 10:18:37;;;;;;;4.53;2.23;;;;;;;22.69;44.12;100387.31;10328954;28;20053;-68
2023/06/28 10:23:40;;;;;;;5.15;1.80;;;;;;;23.04;43.01;100381.84;10333260;28;20121;-68
2023/06/28 10:28:43;;;;;;;5.53;1.50;;;;;;;23.23;42.09;100378.41;10324484;28;20049;-68
2023/06/28 10:33:45;;;;;;;3.58;0.98;;;;;;;23.27;41.82;100379.69;10324641;28;20042;-68
2023/06/28 10:38:51;;;;;;;3.13;1.13;;;;;;;23.44;41.33;100379.31;10337113;28;20107;-66
2023/06/28 10:44:10;;;;;;;6.10;2.10;;;;;;;23.92;40.02;100371.03;10325492;28;20046;-66
2023/06/28 10:49:12;;;;;;;4.10;1.35;;;;;;;24.01;40.40;100366.22;10341555;28;20465;-68
2023/06/28 10:54:14;;;;;;;4.70;2.00;;;;;;;24.23;39.56;100361.41;10329411;28;20068;-66
2023/06/28 10:59:16;;;;;;;3.38;1.40;;;;;;;24.45;39.88;100363.88;10329447;28;20180;-67
2023/06/28 11:04:23;;;;;;;2.85;1.50;;;;;;;24.29;39.76;100351.56;10356230;28;20061;-69
2023/06/28 11:09:24;;;;;;;5.88;1.83;;;;;;;24.39;39.52;100337.53;10355570;28;20052;-67
2023/06/28 11:14:35;;;;;;;8.90;1.75;;;;;;;24.59;38.45;100348.38;10338141;28;20058;-67
2023/06/28 11:19:39;;;;;;;3.83;1.92;;;;;;;24.83;39.12;100344.13;10324728;28;20112;-68
2023/06/28 11:24:43;;;;;;;7.68;2.42;;;;;;;24.98;38.53;100347.41;10324126;28;20060;-67
2023/06/28 11:30:00;;;;;;;5.47;1.75;;;;;;;25.24;37.87;100353.78;10323231;28;20049;-66
2023/06/28 11:35:04;;;;;;;7.10;2.08;;;;;;;24.92;38.65;100337.41;10325355;28;20147;-66
2023/06/28 11:40:06;;;;;;;4.15;2.70;;;;;;;24.45;39.23;100331.22;10324913;28;20211;-66
2023/06/28 11:45:08;;;;;;;5.63;2.37;;;;;;;24.81;39.24;100329.91;10328543;28;20053;-67
2023/06/28 11:50:09;;;;;;;4.88;1.65;;;;;;;25.00;38.75;100331.69;10320122;28;20085;-67
2023/06/28 11:55:16;;;;;;;5.65;2.08;;;;;;;25.31;37.98;100330.09;10327868;28;20638;-68
2023/06/28 12:00:18;;;;;;;3.92;1.63;;;;;;;25.56;37.86;100338.28;10341302;28;20064;-66
2023/06/28 12:05:21;;;;;;;3.63;1.50;;;;;;;25.74;37.22;100329.34;10350729;28;21509;-67
2023/06/28 12:10:22;;;;;;;6.05;2.03;;;;;;;25.97;37.69;100336.09;10330543;28;20045;-67
2023/06/28 12:15:24;;;;;;;6.13;2.38;;;;;;;25.79;37.76;100341.50;10339739;28;20061;-67
2023/06/28 12:20:25;;;;;;;3.38;1.80;;;;;;;25.57;38.04;100334.53;10338471;28;20054;-67
2023/06/28 12:25:27;;;;;;;3.72;1.02;;;;;;;25.97;37.69;100333.34;10325524;28;20073;-68
2023/06/28 12:30:29;;;;;;;2.30;1.60;;;;;;;26.03;36.84;100332.53;10328277;28;20057;-67
2023/06/28 12:35:30;;;;;;;4.38;1.23;;;;;;;26.13;37.39;100315.63;10323186;28;20128;-66
2023/06/28 12:40:33;;;;;;;1.45;1.33;;;;;;;26.13;36.18;100315.63;10323163;28;20046;-67
2023/06/28 12:45:39;;;;;;;;;;;;;;;25.70;37.23;100313.66;10322338;28;20049;-66
2023/06/28 12:50:41;;;;;;;1.73;1.10;;;;;;;26.07;36.99;100311.06;10327842;28;19928;-66
2023/06/28 12:55:42;;;;;;;2.92;1.20;;;;;;;26.40;36.11;100302.53;10321070;28;20061;-67
2023/06/28 13:00:44;;;;;;;2.67;1.25;;;;;;;26.31;35.74;100298.44;10328234;28;20053;-65
2023/06/28 13:05:47;;;;;;;3.33;1.25;;;;;;;26.11;36.42;100302.22;10323553;28;20184;-67
2023/06/28 13:10:48;;;;;;;4.57;1.48;;;;;;;26.06;37.07;100296.63;10322934;28;20053;-67
2023/06/28 13:15:51;;;;;;;2.38;1.27;;;;;;;25.93;38.00;100296.72;10334491;28;20292;-69
2023/06/28 13:20:52;;;;;;;5.43;1.90;;;;;;;26.08;36.71;100291.75;10323459;28;20777;-65
2023/06/28 13:25:54;;;;;;;3.92;1.33;;;;;;;26.09;37.05;100290.72;10322174;28;20097;-69
2023/06/28 13:30:55;;;;;;;2.90;1.30;;;;;;;25.97;37.04;100283.44;10318737;28;20213;-67
2023/06/28 13:35:57;;;;;;;4.53;1.48;;;;;;;25.99;36.46;100268.56;10335661;28;20046;-68
2023/06/28 13:40:58;;;;;;;2.90;1.40;;;;;;;26.14;36.88;100272.81;10319667;28;20132;-67
2023/06/28 13:46:00;;;;;;;1.67;0.95;;;;;;;26.00;37.15;100272.97;10322975;28;20150;-67
2023/06/28 13:51:01;;;;;;;4.03;1.30;;;;;;;25.95;37.62;100259.13;10336202;28;20056;-69
2023/06/28 13:56:03;;;;;;;3.42;1.13;;;;;;;26.06;36.92;100269.34;10381931;28;21555;-68
2023/06/28 14:01:04;;;;;;;2.85;1.15;;;;;;;26.12;36.43;100270.31;10343721;28;20062;-68
2023/06/28 14:06:06;;;;;;;2.67;1.13;;;;;;;25.83;36.63;100263.66;10335158;28;20054;-66
2023/06/28 14:11:07;;;;;;;2.95;1.60;;;;;;;25.58;37.99;100259.91;10336997;28;20054;-66
2023/06/28 14:16:09;;;;;;;3.60;1.70;;;;;;;25.72;37.16;100257.06;10332939;28;20144;-65
2023/06/28 14:21:10;;;;;;;3.15;1.13;;;;;;;25.64;37.83;100255.44;10330397;28;20045;-66
2023/06/28 14:26:12;;;;;;;3.95;1.38;;;;;;;25.64;37.79;100250.00;10332014;28;20062;-66
2023/06/28 14:31:15;;;;;;;4.75;1.70;;;;;;;25.81;37.95;100236.63;10331381;28;20084;-67
2023/06/28 14:36:16;;;;;;;2.45;1.10;;;;;;;25.97;37.74;100243.38;10336637;28;20055;-67
2023/06/28 14:41:18;;;;;;;3.20;1.30;;;;;;;26.01;37.69;100236.44;10341004;28;20576;-67
2023/06/28 14:46:20;;;;;;;4.60;1.27;;;;;;;25.86;37.75;100231.31;10377925;28;20092;-67
2023/06/28 14:51:21;;;;;;;1.83;1.20;;;;;;;25.54;38.16;100236.88;10345000;28;20137;-67
2023/06/28 14:56:23;;;;;;;1.55;1.20;;;;;;;25.64;38.16;100230.94;10345022;28;20220;-69
2023/06/28 15:01:24;;;;;;;2.97;1.40;;;;;;;25.50;38.31;100226.63;10348645;28;20054;-67
2023/06/28 15:06:25;;;;;;;3.38;1.20;;;;;;;25.52;37.88;100227.22;10345418;28;20549;-67
2023/06/28 15:11:27;;;;;;;2.88;1.20;;;;;;;25.52;38.40;100224.50;10364963;28;20762;-67
2023/06/28 15:16:28;;;;;;;2.85;1.20;;;;;;;25.52;38.23;100221.78;10348567;28;20057;-67
2023/06/28 15:21:31;;;;;;;2.95;1.65;;;;;;;25.31;38.71;100225.72;10347441;28;20494;-68
2023/06/28 15:26:32;;;;;;;3.13;1.20;;;;;;;25.52;38.63;100222.63;10341847;28;20049;-67
2023/06/28 15:31:34;;;;;;;3.33;1.70;;;;;;;25.55;38.21;100224.06;10343868;28;20061;-67
2023/06/28 15:36:35;;;;;;;2.45;1.10;;;;;;;25.62;38.75;100216.66;10340379;28;20156;-67
2023/06/28 15:41:37;;;;;;;1.48;1.00;;;;;;;25.61;38.58;100215.00;10340334;28;20131;-70
2023/06/28 15:46:38;;;;;;;3.00;1.13;;;;;;;25.75;38.38;100215.72;10333979;28;20081;-66
2023/06/28 15:51:40;;;;;;;2.45;1.13;;;;;;;25.73;38.43;100213.22;10351092;28;20058;-66
2023/06/28 15:56:43;;;;;;;2.30;1.20;;;;;;;25.65;38.25;100218.13;10331282;28;20397;-65
2023/06/28 16:01:45;;;;;;;2.35;1.52;;;;;;;25.55;38.47;100202.25;10338382;28;20544;-67
2023/06/28 16:06:46;;;;;;;2.53;1.20;;;;;;;25.66;38.82;100208.91;10333168;28;20050;-68
2023/06/28 16:11:48;;;;;;;3.28;2.50;;;;;;;25.73;38.62;100207.78;10343267;28;20072;-66
2023/06/28 16:16:50;;;;;;;2.78;1.25;;;;;;;25.63;38.52;100203.91;10362186;28;20057;-66
2023/06/28 16:21:52;;;;;;;2.08;1.30;;;;;;;25.56;39.13;100201.22;10333234;28;20096;-68
2023/06/28 16:26:53;;;;;;;2.60;1.00;;;;;;;25.48;38.96;100185.16;10336655;28;20058;-66
2023/06/28 16:31:55;;;;;;;3.80;1.40;;;;;;;25.48;38.55;100193.34;10341100;28;20084;-68
2023/06/28 16:36:57;;;;;;;2.65;1.08;;;;;;;25.46;39.20;100190.84;10332538;28;20144;-68
2023/06/28 16:41:58;;;;;;;2.70;1.30;;;;;;;25.40;38.85;100192.56;10360442;28;20053;-70
2023/06/28 16:47:04;;;;;;;2.65;1.08;;;;;;;25.26;39.18;100196.41;10342047;28;20172;-67
2023/06/28 16:52:05;;;;;;;2.30;1.35;;;;;;;25.17;39.32;100193.13;10345066;28;20057;-69
2023/06/28 16:57:07;;;;;;;2.78;1.55;;;;;;;25.13;39.80;100199.22;10327190;28;20378;-69
2023/06/28 17:02:08;;;;;;;2.58;1.30;;;;;;;25.24;39.58;100198.53;10329329;28;20049;-67
2023/06/28 17:07:10;;;;;;;3.33;1.17;;;;;;;25.10;39.74;100191.50;10331963;28;20052;-70
2023/06/28 17:12:11;;;;;;;2.63;0.77;;;;;;;25.14;39.70;100195.47;10342408;28;20066;-69
2023/06/28 17:17:12;;;;;;;2.42;1.00;;;;;;;25.11;40.17;100199.44;10324026;28;20310;-71
2023/06/28 17:22:14;;;;;;;2.28;1.08;;;;;;;24.97;39.84;100198.72;10329502;28;20389;-69
2023/06/28 17:27:17;;;;;;;1.88;0.90;;;;;;;24.86;40.08;100204.84;10334541;28;20054;-68
2023/06/28 17:32:18;;;;;;;1.40;1.00;;;;;;;24.85;39.99;100195.84;10339119;28;20572;-68
2023/06/28 17:37:20;;;;;;;2.38;1.17;;;;;;;24.92;40.30;100195.84;10338884;28;20049;-69
2023/06/28 17:42:21;;;;;;;2.67;1.05;;;;;;;25.00;40.14;100202.91;10341750;28;20076;-67
2023/06/28 17:47:23;;;;;;;1.35;0.93;;;;;;;25.01;40.32;100202.69;10335980;28;20053;-67
2023/06/28 17:52:24;;;;;;;2.25;1.48;;;;;;;25.03;40.25;100208.72;10353359;28;20064;-68
2023/06/28 17:57:26;;;;;;;2.70;1.10;;;;;;;25.01;40.16;100205.41;10338315;28;20042;-66
2023/06/28 18:02:28;;;;;;;2.35;1.00;;;;;;;25.01;40.45;100205.41;10339216;28;20140;-67
2023/06/28 18:07:30;;;;;;;2.30;0.80;;;;;;;24.98;40.35;100211.28;10335308;28;21382;-67
2023/06/28 18:12:31;;;;;;;2.07;1.07;;;;;;;24.98;40.78;100219.44;10332485;28;20073;-68
2023/06/28 18:17:33;;;;;;;3.15;0.90;;;;;;;24.92;40.31;100212.16;10334574;28;20056;-67
2023/06/28 18:22:35;;;;;;;3.45;1.08;;;;;;;24.81;40.88;100210.13;10339386;28;20053;-67
2023/06/28 18:27:36;;;;;;;2.65;1.00;;;;;;;24.75;40.75;100214.56;10336148;28;20059;-67
2023/06/28 18:32:37;;;;;;;2.72;1.52;;;;;;;24.57;41.22;100215.25;10339762;28;20049;-68
2023/06/28 18:37:39;;;;;;;3.85;1.40;;;;;;;24.52;41.14;100206.91;10342130;28;20053;-68
2023/06/28 18:42:40;;;;;;;4.00;1.08;;;;;;;24.62;41.68;100223.63;10327539;28;21289;-68
2023/06/28 18:47:42;;;;;;;2.63;0.98;;;;;;;24.61;41.45;100221.13;10327911;28;20064;-68
2023/06/28 18:52:43;;;;;;;2.88;0.75;;;;;;;24.55;41.51;100221.97;10327762;28;20061;-70
2023/06/28 18:57:46;;;;;;;3.17;0.82;;;;;;;24.49;41.60;100218.22;10325671;28;20069;-68
2023/06/28 19:02:47;;;;;;;1.83;0.90;;;;;;;24.47;41.77;100220.31;10330611;28;20142;-67
2023/06/28 19:07:49;;;;;;;1.70;0.85;;;;;;;24.48;41.93;100211.09;10342788;28;20453;-69
2023/06/28 19:12:50;;;;;;;2.55;0.80;;;;;;;24.51;41.63;100213.38;10327338;28;20058;-69
2023/06/28 19:17:52;;;;;;;1.65;0.70;;;;;;;24.49;41.99;100210.88;10329908;28;20634;-68
2023/06/28 19:22:54;;;;;;;3.55;0.90;;;;;;;24.40;42.56;100200.47;10334512;28;20124;-67
2023/06/28 19:27:55;;;;;;;1.55;0.95;;;;;;;24.40;42.51;100209.47;10340275;28;20076;-67
2023/06/28 19:32:57;;;;;;;2.53;0.98;;;;;;;24.40;42.79;100211.38;10359039;28;20061;-68
2023/06/28 19:38:00;;;;;;;3.70;1.05;;;;;;;24.33;43.32;100214.91;10362155;28;20058;-67
2023/06/28 19:43:02;;;;;;;3.10;0.95;;;;;;;24.29;43.28;100216.41;10333661;28;20140;-68
2023/06/28 19:48:03;;;;;;;3.85;1.73;;;;;;;24.23;43.46;100209.13;10331472;28;20060;-70
2023/06/28 19:53:05;;;;;;;4.13;1.17;;;;;;;24.20;44.34;100209.56;10333352;28;20041;-67
2023/06/28 19:58:06;;;;;;;3.22;1.23;;;;;;;24.13;44.42;100220.44;10325357;28;20077;-69
2023/06/28 20:03:07;;;;;;;1.92;1.10;;;;;;;24.14;44.74;100221.25;10327292;28;20436;-69
2023/06/28 20:08:09;;;;;;;1.70;1.00;;;;;;;24.06;44.55;100230.50;10328734;28;20244;-68
2023/06/28 20:13:11;;;;;;;3.55;1.23;;;;;;;24.00;44.89;100234.91;10327447;28;20057;-68
2023/06/28 20:18:12;;;;;;;2.15;1.38;;;;;;;23.95;45.19;100236.59;10326017;28;20072;-69
2023/06/28 20:23:14;;;;;;;3.85;1.50;;;;;;;23.88;45.41;100236.59;10329743;28;20069;-68
2023/06/28 20:28:17;;;;;;;3.83;1.48;;;;;;;23.77;45.69;100223.63;10337559;28;20049;-68
2023/06/28 20:33:19;;;;;;;3.28;1.40;;;;;;;23.81;45.87;100238.47;10341995;28;20508;-68
2023/06/28 20:38:20;;;;;;;2.60;1.38;;;;;;;23.76;46.54;100230.09;10329934;28;20061;-70
2023/06/28 20:43:25;;;;;;;3.65;1.80;;;;;;;23.75;46.63;100233.84;10320721;28;20085;-70
2023/06/28 20:48:28;;;;;;;3.65;1.48;;;;;;;23.68;46.41;100241.19;10338641;28;20049;-69
2023/06/28 20:53:29;;;;;;;2.75;1.55;;;;;;;23.62;46.71;100243.69;10324241;28;20045;-71
2023/06/28 20:58:30;;;;;;;3.15;1.85;;;;;;;23.60;46.36;100243.06;10325480;28;20163;-67
2023/06/28 21:03:32;;;;;;;3.40;1.27;;;;;;;23.54;46.86;100246.63;10323163;28;20056;-68
2023/06/28 21:08:33;;;;;;;2.72;1.63;;;;;;;23.50;47.43;100245.38;10318306;28;20661;-68
2023/06/28 21:13:35;;;;;;;1.65;1.08;;;;;;;23.44;47.66;100241.59;10327428;28;20525;-68
2023/06/28 21:18:36;;;;;;;2.30;1.77;;;;;;;23.41;47.21;100242.03;10331422;28;20171;-69
2023/06/28 21:23:39;;;;;;;3.95;1.63;;;;;;;23.37;47.94;100248.09;10350900;28;20062;-71
2023/06/28 21:28:40;;;;;;;;;;;;;;;23.35;48.36;100242.84;10352056;28;20072;-67
2023/06/28 21:33:42;;;;;;;2.40;1.48;;;;;;;23.32;48.13;100247.88;10332220;28;19929;-68
2023/06/28 21:38:44;;;;;;;3.42;1.50;;;;;;;23.28;48.29;100233.88;10332611;28;20141;-68
2023/06/28 21:43:46;;;;;;;2.30;1.40;;;;;;;23.25;48.49;100239.72;10330908;28;20064;-68
2023/06/28 21:48:47;;;;;;;1.83;1.30;;;;;;;23.21;48.44;100241.16;10334484;28;20049;-67
2023/06/28 21:53:49;;;;;;;3.70;1.70;;;;;;;23.14;48.36;100235.72;10335348;28;20124;-68
2023/06/28 21:58:50;;;;;;;2.47;1.45;;;;;;;23.14;49.21;100238.44;10334869;28;20628;-68
2023/06/28 22:03:52;;;;;;;4.20;2.10;;;;;;;23.10;48.75;100237.19;10333444;28;20069;-69
2023/06/28 22:08:55;;;;;;;2.83;1.88;;;;;;;23.04;48.88;100233.38;10337109;28;20050;-68
2023/06/28 22:14:03;;;;;;;;;;;;;;;23.00;49.28;100242.13;10342358;28;20168;-68
2023/06/28 22:19:06;;;;;;;2.85;1.27;;;;;;;22.95;49.56;100234.63;10346228;28;19937;-68
2023/06/28 22:24:08;;;;;;;3.23;1.80;;;;;;;22.91;49.60;100234.19;10359036;28;20756;-68
2023/06/28 22:29:09;;;;;;;3.15;1.60;;;;;;;22.87;49.73;100241.06;10389618;28;20049;-67
2023/06/28 22:34:11;;;;;;;2.55;1.77;;;;;;;22.88;49.87;100234.63;10340852;28;20058;-68
2023/06/28 22:39:12;;;;;;;2.67;1.50;;;;;;;22.71;50.58;100233.31;10340624;28;20093;-68
2023/06/28 22:44:14;;;;;;;3.33;1.58;;;;;;;22.68;50.22;100231.00;10341555;28;20127;-68
2023/06/28 22:49:15;;;;;;;3.13;1.60;;;;;;;22.59;51.06;100230.34;10340388;28;20046;-68
2023/06/28 22:54:25;;;;;;;3.47;1.67;;;;;;;22.62;50.63;100229.09;10341824;28;20049;-69
2023/06/28 22:59:26;;;;;;;2.47;1.63;;;;;;;22.44;50.56;100233.19;10337459;28;20390;-67
2023/06/28 23:04:28;;;;;;;3.00;1.70;;;;;;;22.37;51.99;100235.06;10336920;28;20056;-68
2023/06/28 23:09:30;;;;;;;2.00;1.50;;;;;;;22.47;51.87;100223.81;10337924;28;20500;-68